Time;durP1;ratioP1;P1;durP2;ratioP2;P2;SDS_P1;SDS_P2;PMS_P1;PMS_P2;Temp;Humidity;BMP_temperature;BMP_pressure;BME280_temperature;BME280_humidity;BME280_pressure;Samples;Min_cycle;Max_cycle;Signal;HPM_P1;HPM_P2
2022/06/11 00:00:53;;;;;;;;;12.25;9.75;;;;;21.31;48.79;101712.00;4971482;28;46135;-51
2022/06/11 00:03:18;;;;;;;;;11.25;10.25;;;;;21.29;48.75;101702.31;4971509;28;45433;-50
2022/06/11 00:05:44;;;;;;;;;11.75;10.25;;;;;21.25;48.75;101704.25;4954798;28;45326;-47
2022/06/11 00:08:09;;;;;;;;;9.75;8.50;;;;;21.22;48.63;101702.56;4972984;28;45358;-52
2022/06/11 00:10:35;;;;;;;;;9.00;9.00;;;;;21.22;48.34;101699.00;4971828;28;45420;-49
2022/06/11 00:13:01;;;;;;;;;9.25;9.25;;;;;21.22;48.66;101693.66;4971643;28;45303;-51
2022/06/11 00:15:26;;;;;;;;;9.50;8.75;;;;;21.17;49.12;101691.22;4970484;28;45232;-52
2022/06/11 00:17:52;;;;;;;;;10.00;8.75;;;;;21.16;48.98;101693.97;4969639;28;45607;-51
2022/06/11 00:20:17;;;;;;;;;13.00;10.00;;;;;21.16;48.69;101691.28;4971993;28;46056;-52
2022/06/11 00:22:43;;;;;;;;;9.00;8.25;;;;;21.14;48.72;101703.84;4971957;28;45317;-52
2022/06/11 00:25:09;;;;;;;;;10.00;9.25;;;;;21.07;49.24;101692.56;4970486;28;45532;-51
2022/06/11 00:27:34;;;;;;;;;7.00;6.50;;;;;21.05;48.94;101692.59;4970118;28;45384;-50
2022/06/11 00:30:00;;;;;;;;;10.00;10.00;;;;;21.06;48.91;101693.50;4970323;28;45391;-51
2022/06/11 00:32:25;;;;;;;;;7.50;7.25;;;;;21.03;49.39;101699.84;4950930;28;45257;-48
2022/06/11 00:34:52;;;;;;;;;10.00;10.00;;;;;21.02;49.38;101698.09;4962777;28;45224;-51
2022/06/11 00:37:18;;;;;;;;;11.00;9.25;;;;;20.99;49.20;101694.69;4962567;28;45498;-52
2022/06/11 00:39:44;;;;;;;;;8.75;8.25;;;;;20.96;49.44;101694.81;4945153;28;45350;-51
2022/06/11 00:42:19;;;;;;;;;7.00;7.00;;;;;20.96;49.16;101694.81;4961883;28;45390;-51
2022/06/11 00:44:45;;;;;;;;;8.50;8.50;;;;;20.93;49.47;101693.16;4962910;28;45273;-51
2022/06/11 00:47:19;;;;;;;;;9.00;8.00;;;;;20.90;49.19;101691.44;4962338;28;45398;-49
2022/06/11 00:50:06;;;;;;;;;8.00;8.00;;;;;20.89;49.47;101688.84;4962522;28;46264;-51
2022/06/11 00:52:36;;;;;;;;;8.50;8.50;;;;;20.89;49.11;101689.75;4962203;28;45430;-49
2022/06/11 00:55:10;;;;;;;;;10.00;8.75;;;;;20.88;49.14;101695.13;4962445;28;45317;-49
2022/06/11 00:57:43;;;;;;;;;8.00;8.00;;;;;20.86;49.84;101692.53;4962465;28;45433;-49
2022/06/11 01:00:26;;;;;;;;;9.25;7.25;;;;;20.84;49.83;101691.75;4962270;28;46424;-49
2022/06/11 01:02:51;;;;;;;;;8.00;8.00;;;;;20.83;49.59;101695.34;4962181;28;45415;-48
2022/06/11 01:05:25;;;;;;;;;8.50;8.00;;;;;20.82;49.63;101690.03;4962313;28;45328;-52
2022/06/11 01:07:59;;;;;;;;;9.25;8.00;;;;;20.80;49.45;101686.59;4962339;28;45353;-50
2022/06/11 01:11:04;;;;;;;;;7.50;7.25;;;;;20.79;49.93;101693.72;4961963;28;45279;-50
2022/06/11 01:13:45;;;;;;;;;12.25;8.25;;;;;20.74;49.45;101691.25;4945948;28;45439;-50
2022/06/11 01:16:16;;;;;;;;;12.75;9.00;;;;;20.75;49.51;101697.44;4962192;28;45253;-48
2022/06/11 01:18:51;;;;;;;;;8.25;7.00;;;;;20.74;49.68;101693.03;4962156;28;45358;-47
2022/06/11 01:21:51;;;;;;;;;11.50;9.75;;;;;20.71;49.60;101694.03;4944219;28;46255;-47
2022/06/11 01:24:41;;;;;;;;;8.00;7.25;;;;;20.71;50.07;101693.19;4942792;28;45376;-47
2022/06/11 01:27:15;;;;;;;;;9.00;8.50;;;;;20.69;50.31;101695.00;4961636;28;45383;-48
2022/06/11 01:29:56;;;;;;;;;11.00;9.00;;;;;20.68;49.82;101693.25;4961977;28;45603;-50
2022/06/11 01:32:35;;;;;;;;;8.00;7.00;;;;;20.67;50.00;101688.88;4961916;28;45952;-51
2022/06/11 01:35:00;;;;;;;;;8.50;8.50;;;;;20.65;49.76;101691.59;4961856;28;45407;-48
2022/06/11 01:37:50;;;;;;;;;7.25;6.50;;;;;20.62;49.87;101691.72;4961591;28;45421;-48
2022/06/11 01:40:46;;;;;;;;;8.00;8.00;;;;;20.61;50.28;101696.19;4962024;28;45230;-49
2022/06/11 01:43:28;;;;;;;;;9.75;9.75;;;;;20.58;49.82;101693.66;4962017;28;45271;-50
2022/06/11 01:45:54;;;;;;;;;9.25;7.00;;;;;20.59;50.20;101691.84;4961424;28;45239;-52
2022/06/11 01:48:24;;;;;;;;;7.50;7.25;;;;;20.57;49.88;101693.72;4961889;28;45327;-50
2022/06/11 01:50:58;;;;;;;;;7.75;7.75;;;;;20.57;49.98;101699.06;4958832;28;45418;-50
2022/06/11 01:53:58;;;;;;;;;11.00;9.00;;;;;20.52;50.65;101691.25;4961628;28;45264;-49
2022/06/11 01:56:55;;;;;;;;;12.00;6.75;;;;;20.54;50.11;101701.84;4956360;28;45276;-48
2022/06/11 01:59:26;;;;;;;;;9.50;8.75;;;;;20.52;50.18;101695.72;4961717;28;45242;-51
2022/06/11 02:02:03;;;;;;;;;6.50;6.50;;;;;20.51;50.55;101699.31;4961285;28;45319;-50
2022/06/11 02:04:49;;;;;;;;;6.50;6.50;;;;;20.48;50.69;101705.66;4961169;28;46372;-50
2022/06/11 02:07:31;;;;;;;;;10.00;7.00;;;;;20.46;50.31;101700.38;4961142;28;45399;-48
2022/06/11 02:10:10;;;;;;;;;11.00;8.00;;;;;20.46;50.56;101702.16;4961417;28;45288;-49
2022/06/11 02:12:49;;;;;;;;;12.00;11.00;;;;;20.43;50.66;101697.81;4961289;28;45501;-51
2022/06/11 02:15:39;;;;;;;;;10.50;9.25;;;;;20.42;50.87;101701.41;4960872;28;45498;-49
2022/06/11 02:18:15;;;;;;;;;9.75;9.75;;;;;20.39;50.35;101706.00;4943819;28;45440;-49
2022/06/11 02:21:13;;;;;;;;;10.75;9.75;;;;;20.39;50.45;101706.00;4943324;28;45515;-48
2022/06/11 02:23:43;;;;;;;;;7.50;7.50;;;;;20.37;50.85;101699.88;4949461;28;45255;-51
2022/06/11 02:26:15;;;;;;;;;9.25;8.50;;;;;20.36;50.63;101701.66;4961144;28;46245;-51
2022/06/11 02:28:44;;;;;;;;;8.75;8.00;;;;;20.33;50.70;101701.78;4961086;28;45324;-49
2022/06/11 02:31:14;;;;;;;;;9.50;8.25;;;;;20.32;50.99;101701.88;4961028;28;45185;-51
2022/06/11 02:33:41;;;;;;;;;8.25;7.25;;;;;20.29;50.97;101701.03;4943724;28;45517;-47
2022/06/11 02:36:10;;;;;;;;;9.75;9.50;;;;;20.30;51.23;101709.91;4943380;28;46763;-51
2022/06/11 02:38:35;;;;;;;;;11.75;9.00;;;;;20.28;51.19;101711.78;4961019;28;45427;-51
2022/06/11 02:41:09;;;;;;;;;8.50;8.00;;;;;20.24;51.30;101705.69;4960984;28;45367;-49
2022/06/11 02:43:36;;;;;;;;;10.25;9.00;;;;;20.24;51.19;101713.69;4960945;28;45595;-53
2022/06/11 02:46:40;;;;;;;;;10.00;10.00;;;;;20.23;50.99;101711.97;4960511;28;45357;-49
2022/06/11 02:48:47;;;;;;;;;7.75;6.75;;;;;20.22;51.12;101714.69;4960453;28;45220;-49
2022/06/11 02:51:12;;;;;;;;;9.00;9.00;;;;;20.21;50.69;101712.94;4960862;28;45473;-50
2022/06/11 02:53:38;;;;;;;;;10.00;7.50;;;;;20.18;51.34;101721.09;4960742;28;45474;-50
2022/06/11 02:56:04;;;;;;;;;8.50;8.50;;;;;20.16;51.51;101720.28;4961706;28;46239;-51
2022/06/11 02:58:29;;;;;;;;;8.50;7.75;;;;;20.14;51.11;101717.66;4964142;28;45439;-51
2022/06/11 03:00:55;;;;;;;;;10.75;9.25;;;;;20.12;51.55;101717.75;4946992;28;45343;-51
2022/06/11 03:03:22;;;;;;;;;9.00;7.50;;;;;20.10;51.44;101718.69;4964180;28;45363;-51
2022/06/11 03:05:47;;;;;;;;;8.00;8.00;;;;;20.08;51.25;101724.09;4963963;28;47167;-49
2022/06/11 03:08:12;;;;;;;;;9.00;7.50;;;;;20.07;51.10;101721.50;4946507;28;45241;-51
2022/06/11 03:10:38;;;;;;;;;10.00;9.00;;;;;20.03;51.08;101722.56;4964242;28;45324;-51
2022/06/11 03:13:05;;;;;;;;;7.00;7.00;;;;;20.01;51.22;101730.59;4964121;28;45512;-49
2022/06/11 03:15:30;;;;;;;;;11.75;10.00;;;;;19.99;51.49;101721.78;4963974;28;46114;-49
2022/06/11 03:17:57;;;;;;;;;7.00;6.75;;;;;19.96;51.30;101720.13;4963666;28;45237;-49
2022/06/11 03:20:25;;;;;;;;;10.00;7.75;;;;;19.95;51.60;101725.53;4946679;28;45420;-48
2022/06/11 03:22:50;;;;;;;;;9.25;7.25;;;;;19.93;51.70;101724.69;4963593;28;45502;-47
2022/06/11 03:25:16;;;;;;;;;5.50;5.50;;;;;19.93;51.78;101730.03;4963737;28;47098;-49
2022/06/11 03:27:42;;;;;;;;;13.00;10.25;;;;;19.91;51.39;101726.53;4963637;28;45232;-51
2022/06/11 03:30:10;;;;;;;;;9.00;8.75;;;;;19.91;51.73;101731.88;4964130;28;45306;-50
2022/06/11 03:32:35;;;;;;;;;8.00;7.00;;;;;19.89;51.22;101733.75;4963591;28;45527;-48
2022/06/11 03:35:02;;;;;;;;;10.00;9.00;;;;;19.85;51.47;101734.78;4963747;28;45388;-50
2022/06/11 03:37:27;;;;;;;;;9.50;9.50;;;;;19.87;51.72;101739.13;4946054;28;45450;-52
2022/06/11 03:39:52;;;;;;;;;10.00;9.75;;;;;19.87;51.74;101738.25;4946366;28;45359;-50
2022/06/11 03:42:18;;;;;;;;;10.00;10.00;;;;;19.86;51.44;101744.50;4963408;28;45643;-51
2022/06/11 03:44:43;;;;;;;;;7.75;7.75;;;;;19.84;52.07;101747.25;4963685;28;45319;-50
2022/06/11 03:47:09;;;;;;;;;11.75;10.00;;;;;19.84;51.74;101746.38;4962345;28;45383;-50
2022/06/11 03:49:35;;;;;;;;;12.50;10.00;;;;;19.80;52.00;101751.78;4963530;28;45552;-51
2022/06/11 03:52:00;;;;;;;;;9.00;9.00;;;;;19.81;51.95;101750.00;4963302;28;45322;-51
2022/06/11 03:54:26;;;;;;;;;8.25;8.25;;;;;19.79;52.12;101755.38;4963405;28;45359;-50
2022/06/11 03:56:52;;;;;;;;;10.25;8.25;;;;;19.78;52.14;101760.78;4963203;28;45268;-49
2022/06/11 03:59:18;;;;;;;;;9.50;8.75;;;;;19.77;51.96;101762.59;4963403;28;45232;-51
2022/06/11 04:01:44;;;;;;;;;8.25;7.50;;;;;19.74;51.59;101768.00;4963235;28;45217;-51
2022/06/11 04:04:13;;;;;;;;;8.00;8.00;;;;;19.73;51.48;101773.41;4963373;28;46188;-50
2022/06/11 04:06:59;;;;;;;;;9.00;6.00;;;;;19.70;52.19;101773.50;4962576;28;45330;-48
2022/06/11 04:09:30;;;;;;;;;9.50;8.00;;;;;19.69;51.72;101774.44;4962834;28;45267;-48
2022/06/11 04:11:56;;;;;;;;;7.75;6.50;;;;;19.66;51.92;101786.09;4945749;28;45367;-51
2022/06/11 04:14:22;;;;;;;;;7.50;7.00;;;;;19.64;51.99;101774.59;4962984;28;45417;-51
2022/06/11 04:17:10;;;;;;;;;8.75;7.50;;;;;19.62;51.77;101780.00;4962972;28;45427;-48
2022/06/11 04:19:39;;;;;;;;;8.00;8.00;;;;;19.57;51.74;101776.63;4963166;28;45376;-50
2022/06/11 04:22:05;;;;;;;;;9.75;9.75;;;;;19.57;52.29;101776.63;4962671;28;45198;-52
2022/06/11 04:24:32;;;;;;;;;9.00;8.00;;;;;19.58;52.35;101785.50;4962281;28;45532;-51
2022/06/11 04:27:00;;;;;;;;;7.00;7.00;;;;;19.54;51.84;101782.06;4963059;28;45704;-50
2022/06/11 04:29:31;;;;;;;;;10.50;10.50;;;;;19.53;52.29;101780.31;4962876;28;45342;-51
2022/06/11 04:32:00;;;;;;;;;10.75;8.00;;;;;19.53;52.12;101795.44;4962841;28;45250;-51
2022/06/11 04:34:27;;;;;;;;;10.00;8.00;;;;;19.47;52.28;101789.41;4962644;28;45498;-51
2022/06/11 04:36:53;;;;;;;;;14.00;10.75;;;;;19.48;51.87;101796.50;4962260;28;45463;-51
2022/06/11 04:39:22;;;;;;;;;7.25;7.25;;;;;19.47;52.41;101797.41;4962903;28;45244;-53
2022/06/11 04:41:48;;;;;;;;;9.00;8.25;;;;;19.45;51.83;101795.72;4962557;28;45439;-49
2022/06/11 04:44:14;;;;;;;;;8.00;8.00;;;;;19.45;52.03;101801.06;4945011;28;46625;-50
2022/06/11 04:46:39;;;;;;;;;9.75;9.75;;;;;19.44;52.25;101797.50;4962431;28;45355;-51
2022/06/11 04:49:05;;;;;;;;;10.25;8.00;;;;;19.44;52.27;101807.31;4962733;28;45386;-49
2022/06/11 04:51:31;;;;;;;;;15.00;9.75;;;;;19.43;51.95;101814.44;4945005;28;45284;-51
2022/06/11 04:53:56;;;;;;;;;8.25;7.50;;;;;19.44;52.09;101809.97;4962184;28;45359;-46
2022/06/11 04:56:25;;;;;;;;;10.50;10.00;;;;;19.43;52.41;101805.56;4944973;28;45587;-51
2022/06/11 04:58:51;;;;;;;;;22.00;19.50;;;;;19.41;52.23;101805.63;4962446;28;45223;-51
2022/06/11 05:01:18;;;;;;;;;52.50;41.50;;;;;19.40;52.48;101803.00;4962408;28;45241;-51
2022/06/11 05:03:43;;;;;;;;;12.25;11.75;;;;;19.43;52.27;101809.09;4962006;28;46232;-49
2022/06/11 05:06:09;;;;;;;;;11.50;11.50;;;;;19.43;52.48;101813.53;4962176;28;45339;-52
2022/06/11 05:08:35;;;;;;;;;10.50;10.00;;;;;19.41;52.23;101807.41;4962664;28;45308;-50
2022/06/11 05:11:01;;;;;;;;;16.00;12.25;;;;;19.43;52.25;101817.09;4962401;28;45480;-52
2022/06/11 05:13:26;;;;;;;;;10.25;9.50;;;;;19.43;52.75;101817.09;4945283;28;47444;-48
2022/06/11 05:15:57;;;;;;;;;11.25;11.25;;;;;19.45;52.70;101817.03;4962166;28;45296;-49
2022/06/11 05:18:24;;;;;;;;;11.00;10.00;;;;;19.45;52.25;101815.25;4961883;28;45699;-48
2022/06/11 05:20:50;;;;;;;;;11.75;11.50;;;;;19.45;52.30;101817.91;4961853;28;45447;-52
2022/06/11 05:23:16;;;;;;;;;11.50;9.50;;;;;19.45;52.45;101814.38;4961642;28;46130;-50
2022/06/11 05:25:43;;;;;;;;;13.00;11.50;;;;;19.46;52.62;101811.66;4961891;28;45529;-51
2022/06/11 05:28:14;;;;;;;;;9.50;9.00;;;;;19.50;52.67;101812.41;4962003;28;45297;-51
2022/06/11 05:30:41;;;;;;;;;13.25;10.75;;;;;19.51;52.67;101807.94;4961817;28;45260;-50
2022/06/11 05:33:07;;;;;;;;;12.25;10.50;;;;;19.52;52.83;101810.59;4961502;28;46197;-52
2022/06/11 05:35:34;;;;;;;;;12.25;11.50;;;;;19.56;52.87;101811.31;4961597;28;45331;-51
2022/06/11 05:38:02;;;;;;;;;11.50;10.00;;;;;19.58;52.78;101815.66;4961833;28;45511;-52
2022/06/11 05:40:34;;;;;;;;;11.25;10.75;;;;;19.60;53.01;101813.84;4961614;28;45450;-51
2022/06/11 05:43:00;;;;;;;;;13.00;11.50;;;;;19.63;52.98;101812.84;4961612;28;46339;-50
2022/06/11 05:45:30;;;;;;;;;12.00;11.50;;;;;19.65;52.54;101814.53;4961535;28;45267;-52
2022/06/11 05:47:58;;;;;;;;;13.50;12.50;;;;;19.67;53.08;101814.47;4944572;28;45438;-52
2022/06/11 05:50:29;;;;;;;;;13.50;12.50;;;;;19.69;52.91;101812.63;4961468;28;45371;-52
2022/06/11 05:52:58;;;;;;;;;12.50;11.75;;;;;19.70;53.15;101814.38;4961565;28;46125;-52
2022/06/11 05:55:28;;;;;;;;;13.00;10.25;;;;;19.73;53.18;101814.25;4961355;28;45319;-50
2022/06/11 05:57:56;;;;;;;;;15.25;12.25;;;;;19.75;53.14;101815.09;4961742;28;45315;-50
2022/06/11 06:00:24;;;;;;;;;13.25;11.25;;;;;19.78;53.24;101814.97;4961391;28;45308;-49
2022/06/11 06:02:50;;;;;;;;;10.50;9.75;;;;;19.80;53.01;101813.13;4961208;28;46493;-49
2022/06/11 06:05:20;;;;;;;;;10.50;10.50;;;;;19.79;53.30;101803.38;4961177;28;45362;-51
2022/06/11 06:07:45;;;;;;;;;11.75;10.00;;;;;19.86;52.84;101817.41;4961079;28;45395;-51
2022/06/11 06:10:11;;;;;;;;;11.00;10.25;;;;;19.88;53.41;101820.03;4961154;28;45441;-51
2022/06/11 06:12:38;;;;;;;;;9.50;8.00;;;;;19.89;53.27;101827.09;4961239;28;45360;-49
2022/06/11 06:15:14;;;;;;;;;11.50;9.75;;;;;19.92;52.95;101819.88;4961036;28;45308;-51
2022/06/11 06:17:41;;;;;;;;;6.75;6.00;;;;;19.89;52.87;101811.97;4961394;28;45283;-51
2022/06/11 07:08:41;;;;;;;;;23.33;21.33;;;;;20.59;53.92;101828.91;6022098;23;46683;31
2022/06/11 07:11:06;;;;;;;;;11.25;10.75;;;;;20.63;53.73;101827.00;4916823;28;45551;-50
2022/06/11 07:13:32;;;;;;;;;10.50;7.50;;;;;20.68;53.32;101826.78;4918896;28;45465;-51
2022/06/11 07:15:58;;;;;;;;;10.75;10.75;;;;;20.72;53.50;101831.13;4918210;28;47138;-55
2022/06/11 07:18:30;;;;;;;;;12.00;11.50;;;;;20.75;53.47;101825.66;4919326;28;45358;-54
2022/06/11 07:20:59;;;;;;;;;13.25;11.00;;;;;20.80;53.77;101828.16;4916069;28;45510;-51
2022/06/11 07:23:36;;;;;;;;;16.25;10.00;;;;;20.83;53.26;101823.56;4921720;28;45262;-58
2022/06/11 07:26:09;;;;;;;;;10.00;10.00;;;;;20.88;53.62;101826.03;4920889;28;46197;-51
2022/06/11 07:28:39;;;;;;;;;11.00;10.00;;;;;20.93;53.87;101829.41;4920055;28;45453;-55
2022/06/11 07:31:05;;;;;;;;;12.50;10.75;;;;;20.95;53.25;101827.50;4910018;28;45379;-49
2022/06/11 07:33:30;;;;;;;;;13.25;12.50;;;;;21.01;53.20;101827.25;4920171;28;45481;-52
2022/06/11 07:35:56;;;;;;;;;14.75;14.50;;;;;21.05;53.89;101818.19;4920110;28;45314;-48
2022/06/11 07:38:23;;;;;;;;;13.50;13.25;;;;;21.08;53.93;101828.75;4921436;28;45404;-48
2022/06/11 07:40:49;;;;;;;;;13.50;13.00;;;;;21.13;53.88;101825.03;4921263;28;45432;-46
2022/06/11 07:43:15;;;;;;;;;12.25;11.25;;;;;21.15;53.52;101826.69;4923827;28;45476;-47
2022/06/11 07:45:42;;;;;;;;;15.00;14.00;;;;;21.19;53.43;101824.78;4923153;28;45266;-45
2022/06/11 07:53:20;;;;;;;;;13.00;11.00;;;;;21.32;53.29;101823.31;5301099;23;46566;-46
2022/06/11 07:55:48;;;;;;;;;11.75;11.75;;;;;21.36;53.92;101824.94;4980404;28;46220;-43
2022/06/11 07:58:15;;;;;;;;;14.75;14.75;;;;;21.42;53.90;101827.34;4979106;28;45418;-42
2022/06/11 08:00:47;;;;;;;;;12.50;11.25;;;;;21.47;53.82;101828.94;4996659;28;45310;-41
2022/06/11 08:03:14;;;;;;;;;11.00;11.00;;;;;21.52;53.93;101826.94;4986793;28;45382;-43
2022/06/11 08:05:41;;;;;;;;;10.50;10.00;;;;;21.58;53.29;101826.72;4979631;28;45467;-43
2022/06/11 08:08:08;;;;;;;;;10.50;7.00;;;;;21.66;53.82;101821.91;4978979;28;45452;-43
2022/06/11 08:10:36;;;;;;;;;10.00;10.00;;;;;21.74;53.53;101825.09;4980299;28;45473;-42
2022/06/11 08:13:02;;;;;;;;;11.25;10.75;;;;;21.83;53.56;101822.97;4975429;28;45428;-44
2022/06/11 08:15:28;;;;;;;;;11.75;11.75;;;;;21.92;53.70;101822.53;4972813;28;46339;-41
2022/06/11 08:17:54;;;;;;;;;8.75;8.75;;;;;22.02;53.48;101821.19;4978488;28;45416;-44
2022/06/11 08:20:25;;;;;;;;;10.00;10.00;;;;;22.13;53.28;101825.19;4978464;28;45477;-44
2022/06/11 08:22:52;;;;;;;;;11.00;11.00;;;;;22.26;53.40;101822.81;4960620;28;45466;-42
2022/06/11 08:25:18;;;;;;;;;8.25;8.25;;;;;22.36;53.46;101825.00;4977750;28;45808;-44
2022/06/11 08:27:44;;;;;;;;;8.00;8.00;;;;;22.46;53.10;101830.81;4979635;28;45563;-45
2022/06/11 08:30:12;;;;;;;;;9.00;8.00;;;;;22.55;53.29;101825.03;4974496;28;45515;-44
2022/06/11 08:32:37;;;;;;;;;8.25;8.25;;;;;22.66;53.18;101826.31;4970155;28;45528;-43
2022/06/11 08:35:03;;;;;;;;;7.50;7.50;;;;;22.74;53.20;101824.13;4977524;28;46200;-45
2022/06/11 08:37:28;;;;;;;;;9.25;8.75;;;;;22.82;53.22;101826.44;4979566;28;45480;-43
2022/06/11 08:39:54;;;;;;;;;10.25;8.75;;;;;22.87;53.15;101825.25;4978299;28;45389;-44
2022/06/11 08:42:33;;;;;;;;;11.75;9.00;;;;;22.92;53.14;101819.69;4978100;28;45368;-42
2022/06/11 08:45:22;;;;;;;;;10.00;9.00;;;;;22.97;52.79;101820.31;4956385;28;46919;-44
2022/06/11 08:50:32;;;;;;;;;9.25;9.00;;;;;23.09;52.76;101823.34;5898964;22;46409;-44
2022/06/11 08:52:59;;;;;;;;;9.25;9.00;;;;;23.15;52.58;101828.41;4977940;28;45470;-45
2022/06/11 08:55:32;;;;;;;;;8.00;8.00;;;;;23.17;52.45;101818.50;4975912;28;46338;-44
2022/06/11 08:58:05;;;;;;;;;7.00;6.50;;;;;23.23;52.57;101823.53;4957352;28;45273;-44
2022/06/11 09:00:44;;;;;;;;;10.25;8.75;;;;;23.27;52.38;101824.25;4978016;28;45606;-43
2022/06/11 09:03:14;;;;;;;;;7.00;7.00;;;;;23.32;52.46;101815.03;4980356;28;45647;-45
2022/06/11 09:06:02;;;;;;;;;6.50;6.50;;;;;23.38;52.03;101813.84;4978412;28;47087;-46
2022/06/11 09:08:42;;;;;;;;;7.25;7.25;;;;;23.44;52.16;101810.84;4979043;28;45465;-42
2022/06/11 09:11:28;;;;;;;;;6.25;6.25;;;;;23.49;52.17;101814.16;4980519;28;45540;-46
2022/06/11 09:14:21;;;;;;;;;13.25;11.50;;;;;23.54;52.02;101798.69;4970418;28;45347;-43
2022/06/11 09:16:59;;;;;;;;;5.00;5.00;;;;;23.57;51.92;101803.06;4979803;28;46993;-46
2022/06/11 09:19:30;;;;;;;;;7.75;7.25;;;;;23.58;51.46;101799.41;4980208;28;45311;-43
2022/06/11 09:22:16;;;;;;;;;9.50;8.50;;;;;23.62;51.87;101800.09;4962358;28;45544;-42
2022/06/11 09:24:57;;;;;;;;;14.50;12.50;;;;;23.64;51.64;101800.91;4973007;28;45275;-44
2022/06/11 09:27:59;;;;;;;;;5.75;5.75;;;;;23.65;51.83;101795.44;4979793;28;45469;-46
2022/06/11 09:30:40;;;;;;;;;8.75;8.00;;;;;23.70;51.60;101793.38;4975229;28;45459;-46
2022/06/11 09:33:20;;;;;;;;;7.25;6.25;;;;;23.75;51.13;101793.16;4969048;28;45268;-45
2022/06/11 09:35:58;;;;;;;;;7.00;5.75;;;;;23.83;51.06;101788.22;4977860;28;45530;-45
2022/06/11 09:38:38;;;;;;;;;8.50;7.50;;;;;23.94;51.38;101800.25;4979751;28;47566;-41
2022/06/11 09:41:34;;;;;;;;;7.50;7.00;;;;;24.03;51.21;101802.44;4978148;28;45345;-47
2022/06/11 09:44:15;;;;;;;;;2.00;2.00;;;;;24.12;51.02;101809.09;4972724;28;45318;-46
2022/06/11 09:46:51;;;;;;;;;9.00;7.50;;;;;24.20;51.14;101806.00;4959836;28;45536;-44
2022/06/11 09:49:50;;;;;;;;;8.75;6.00;;;;;24.24;51.41;101799.50;4977831;28;46384;-43
2022/06/11 09:52:23;;;;;;;;;6.75;5.25;;;;;24.25;50.84;101801.22;4976256;28;45526;-44
2022/06/11 09:54:48;;;;;;;;;5.50;5.50;;;;;24.26;51.36;101806.50;4978623;28;45372;-44
2022/06/11 09:57:39;;;;;;;;;7.00;6.00;;;;;24.27;50.92;101808.25;4975579;28;45486;-47
2022/06/11 10:00:28;;;;;;;;;7.00;7.00;;;;;24.29;50.87;101806.38;4978732;28;46242;-46
2022/06/11 10:03:22;;;;;;;;;6.75;6.25;;;;;24.32;50.76;101803.50;4960992;28;45434;-45
2022/06/11 10:05:57;;;;;;;;;5.00;4.75;;;;;24.39;50.61;101803.16;4968252;28;45666;-46
2022/06/11 10:09:06;;;;;;;;;7.50;7.00;;;;;24.46;50.52;101810.78;4976495;28;46066;-45
2022/06/11 10:11:48;;;;;;;;;11.50;7.50;;;;;24.58;50.23;101805.66;4968776;28;45971;-45
2022/06/11 10:14:31;;;;;;;;;8.25;8.25;;;;;24.65;50.26;101810.66;4972139;28;45470;-45
2022/06/11 10:17:02;;;;;;;;;6.75;6.25;;;;;24.73;50.10;101810.22;4978071;28;45255;-45
2022/06/11 10:19:51;;;;;;;;;7.50;7.50;;;;;24.79;50.28;101801.81;4978380;28;45626;-46
2022/06/11 10:22:21;;;;;;;;;7.50;7.25;;;;;24.91;49.62;101808.28;4966839;28;45295;-44
2022/06/11 10:25:10;;;;;;;;;8.25;6.75;;;;;25.05;50.21;101798.53;4977724;28;45522;-45
2022/06/11 10:27:41;;;;;;;;;6.50;6.50;;;;;25.17;49.69;101805.00;4969678;28;45537;-48
2022/06/11 10:30:31;;;;;;;;;10.25;7.25;;;;;25.30;49.28;101803.31;4973368;28;45517;-44
2022/06/11 10:32:57;;;;;;;;;7.00;7.00;;;;;25.45;49.60;101806.97;4967461;28;46481;-46
2022/06/11 10:35:32;;;;;;;;;7.75;6.00;;;;;25.55;49.11;101807.28;4978852;28;45230;-46
2022/06/11 10:38:35;;;;;;;;;9.50;8.50;;;;;25.67;49.72;101806.50;4978012;28;45316;-46
2022/06/11 10:41:05;;;;;;;;;8.00;7.25;;;;;25.75;49.71;101808.75;4928063;28;45379;-45
2022/06/11 10:43:47;;;;;;;;;7.50;7.50;;;;;25.88;48.91;101809.69;4978911;28;45646;-43
2022/06/11 10:46:13;;;;;;;;;8.00;8.00;;;;;26.04;49.32;101806.06;4975946;28;45341;-44
2022/06/11 10:48:39;;;;;;;;;8.25;8.25;;;;;26.26;49.14;101805.56;4978810;28;45412;-42
2022/06/11 10:51:33;;;;;;;;;8.25;8.25;;;;;26.54;49.49;101807.34;4976783;28;45481;-45
2022/06/11 10:54:12;;;;;;;;;8.00;8.00;;;;;26.86;49.37;101803.53;4975559;28;46283;-44
2022/06/11 10:56:47;;;;;;;;;8.00;7.00;;;;;27.19;49.36;101797.66;4977400;28;45553;-47
2022/06/11 10:59:20;;;;;;;;;10.00;8.50;;;;;27.62;49.35;101796.56;4977496;28;45329;-44
2022/06/11 11:01:56;;;;;;;;;9.00;8.00;;;;;28.04;49.01;101802.63;4977929;28;45350;-42
2022/06/11 11:04:22;;;;;;;;;5.25;5.25;;;;;28.44;48.87;101800.69;4956795;28;47093;-43
2022/06/11 11:07:04;;;;;;;;;7.75;7.75;;;;;28.78;48.78;101796.38;4976916;28;45496;-44
2022/06/11 11:09:30;;;;;;;;;7.75;7.25;;;;;29.24;48.80;101800.13;4979005;28;45232;-45
2022/06/11 11:11:58;;;;;;;;;6.25;5.25;;;;;29.65;48.55;101801.47;4977182;28;45230;-49
2022/06/11 11:14:33;;;;;;;;;11.00;8.25;;;;;30.06;48.11;101801.88;4970328;28;45485;-43
2022/06/11 11:17:05;;;;;;;;;9.75;8.00;;;;;30.46;48.14;101798.63;4977301;28;45634;-43
2022/06/11 11:19:42;;;;;;;;;6.75;6.75;;;;;30.79;47.57;101801.38;4981768;28;45457;-46
2022/06/11 11:22:14;;;;;;;;;10.00;7.50;;;;;31.09;47.10;101802.53;4963440;28;45379;-44
2022/06/11 11:24:44;;;;;;;;;8.50;8.00;;;;;31.30;47.21;101799.00;4981048;28;46284;-45
2022/06/11 11:27:31;;;;;;;;;12.50;12.50;;;;;31.48;46.55;101793.81;4959008;28;45345;-46
2022/06/11 11:30:01;;;;;;;;;10.25;9.25;;;;;31.68;46.49;101798.38;4975989;28;45353;-46
2022/06/11 11:40:31;;;;;;;;;7.25;7.25;;;;;32.72;45.37;101795.41;5142003;22;45659;-44
2022/06/11 11:43:02;;;;;;;;;5.00;5.00;;;;;33.04;45.33;101786.16;4979615;28;45188;-43
2022/06/11 11:45:43;;;;;;;;;9.25;8.00;;;;;33.37;45.01;101794.88;4981400;28;47111;-46
2022/06/11 11:48:17;;;;;;;;;7.00;5.25;;;;;33.66;44.93;101796.66;4957785;28;45319;-45
2022/06/11 11:50:43;;;;;;;;;6.50;5.75;;;;;33.92;44.47;101796.00;4978515;28;45266;-49
2022/06/11 11:53:48;;;;;;;;;5.75;5.50;;;;;34.16;43.87;101798.19;4981656;28;45616;-45
2022/06/11 11:56:29;;;;;;;;;31.75;28.25;;;;;34.31;43.27;101797.66;4981107;28;45464;-47
2022/06/11 11:58:59;;;;;;;;;13.00;13.00;;;;;34.39;42.70;101786.00;4979946;28;45274;-45
2022/06/11 12:01:28;;;;;;;;;11.00;9.75;;;;;34.39;42.65;101791.47;4981319;28;45358;-47
2022/06/11 12:04:16;;;;;;;;;24.00;22.75;;;;;34.37;42.02;101793.50;4979162;28;45558;-45
2022/06/11 12:06:52;;;;;;;;;13.75;11.25;;;;;34.29;41.73;101789.63;4978535;28;46371;-46
2022/06/11 12:09:24;;;;;;;;;21.75;21.00;;;;;34.16;41.04;101791.84;4979761;28;46331;-49
2022/06/11 12:12:04;;;;;;;;;10.00;9.00;;;;;33.98;41.03;101784.47;4980121;28;45489;-49
2022/06/11 12:14:36;;;;;;;;;12.25;9.75;;;;;33.80;41.06;101786.25;4966791;28;45428;-49
2022/06/11 12:17:16;;;;;;;;;40.75;36.25;;;;;33.64;41.01;101790.47;4980163;28;46859;-47
2022/06/11 12:19:42;;;;;;;;;9.50;8.75;;;;;33.49;41.14;101779.19;4980468;28;45258;-49
2022/06/11 12:22:23;;;;;;;;;11.75;11.00;;;;;33.36;41.05;101770.50;4963682;28;45502;-47
2022/06/11 12:24:51;;;;;;;;;11.50;11.50;;;;;33.21;40.66;101764.63;4974157;28;45267;-45
2022/06/11 12:27:32;;;;;;;;;6.75;5.50;;;;;33.04;40.84;101777.97;4981209;28;45941;-45
2022/06/11 12:30:02;;;;;;;;;6.25;6.25;;;;;32.87;40.80;101770.53;4974196;28;45199;-50
2022/06/11 12:32:30;;;;;;;;;6.25;6.25;;;;;32.70;40.65;101772.91;4972540;28;45380;-48
2022/06/11 12:35:02;;;;;;;;;7.50;7.25;;;;;32.55;40.77;101769.78;4978123;28;45473;-47
2022/06/11 12:37:38;;;;;;;;;8.00;8.00;;;;;32.38;40.17;101765.88;4980398;28;46310;-48
2022/06/11 12:40:26;;;;;;;;;5.75;5.75;;;;;32.19;40.01;101764.00;4957344;28;45361;-49
2022/06/11 12:43:19;;;;;;;;;2.00;2.00;;;;;31.99;40.46;101765.75;4979407;28;45423;-49
2022/06/11 12:46:20;;;;;;;;;3.00;3.00;;;;;31.77;39.85;101759.53;4977651;28;45591;-45
2022/06/11 12:48:54;;;;;;;;;3.00;3.00;;;;;31.60;39.54;101755.56;4979181;28;45401;-46